createdAt,value
2018-07-07T00:00:52.936Z,99.90
2018-07-07T00:05:27.949Z,99.90
2018-07-07T00:10:02.382Z,99.90
2018-07-07T00:14:37.006Z,99.90
2018-07-07T00:19:11.259Z,99.90
2018-07-07T00:23:45.962Z,99.90
2018-07-07T00:28:20.596Z,99.90
2018-07-07T00:32:55.042Z,99.90
2018-07-07T00:42:03.706Z,99.90
2018-07-07T00:46:38.077Z,99.90
2018-07-07T00:51:12.514Z,99.90
2018-07-07T00:55:46.933Z,99.90
2018-07-07T01:00:22.337Z,99.90
2018-07-07T01:04:57.769Z,99.90
2018-07-07T01:09:32.152Z,99.90
2018-07-07T01:14:06.927Z,99.90
2018-07-07T01:18:41.414Z,99.90
2018-07-07T01:23:15.964Z,99.90
2018-07-07T01:27:50.433Z,99.90
2018-07-07T01:32:24.913Z,99.90
2018-07-07T01:36:59.386Z,99.90
2018-07-07T01:41:33.819Z,99.90
2018-07-07T01:50:42.361Z,99.90
2018-07-07T01:55:16.638Z,99.90
2018-07-07T01:59:50.970Z,99.90
2018-07-07T02:04:25.214Z,99.90
2018-07-07T02:08:59.674Z,99.90
2018-07-07T02:13:34.181Z,99.90
2018-07-07T02:18:08.513Z,99.90
2018-07-07T02:22:42.846Z,99.90
2018-07-07T02:27:17.285Z,99.90
2018-07-07T02:31:51.969Z,99.90
2018-07-07T02:36:27.071Z,99.90
2018-07-07T02:41:01.329Z,99.90
2018-07-07T02:45:35.674Z,99.90
2018-07-07T02:50:10.046Z,99.90
2018-07-07T02:54:44.743Z,99.90
2018-07-07T02:59:19.298Z,99.90
2018-07-07T03:03:54.018Z,99.90
2018-07-07T03:08:28.685Z,99.90
2018-07-07T03:13:03.180Z,99.90
2018-07-07T03:17:38.742Z,99.90
2018-07-07T03:22:13.225Z,99.90
2018-07-07T03:26:47.753Z,99.90
2018-07-07T03:31:22.145Z,99.90
2018-07-07T03:35:56.770Z,99.90
2018-07-07T03:40:31.361Z,99.90
2018-07-07T03:45:06.012Z,99.90
2018-07-07T03:49:40.490Z,99.90
2018-07-07T03:54:15.169Z,99.90
2018-07-07T03:58:49.876Z,99.90
2018-07-07T04:03:24.698Z,99.90
2018-07-07T04:12:33.082Z,99.90
2018-07-07T04:17:07.305Z,99.90
2018-07-07T04:21:41.551Z,99.90
2018-07-07T04:26:16.190Z,99.90
2018-07-07T04:30:50.878Z,99.90
2018-07-07T04:35:25.373Z,99.90
2018-07-07T04:40:00.356Z,99.90
2018-07-07T04:44:34.908Z,99.90
2018-07-07T04:49:09.568Z,99.90
2018-07-07T04:53:43.900Z,99.90
2018-07-07T05:02:52.745Z,99.90
2018-07-07T05:07:27.009Z,99.90
2018-07-07T05:12:01.586Z,99.90
2018-07-07T05:16:36.375Z,99.90
2018-07-07T05:21:11.197Z,99.90
2018-07-07T05:25:45.622Z,99.90
2018-07-07T05:30:20.146Z,99.90
2018-07-07T05:39:38.970Z,99.90
2018-07-07T05:44:13.366Z,99.90
2018-07-07T05:48:47.739Z,99.90
2018-07-07T05:53:22.225Z,99.90
2018-07-07T05:57:56.710Z,99.90
2018-07-07T06:02:31.350Z,99.90
2018-07-07T06:07:05.889Z,99.90
2018-07-07T06:11:40.428Z,99.90
2018-07-07T06:16:14.998Z,99.90
2018-07-07T06:20:49.387Z,99.90
2018-07-07T06:25:23.846Z,99.90
2018-07-07T06:29:58.378Z,99.90
2018-07-07T06:34:32.901Z,99.90
2018-07-07T06:39:07.987Z,99.90
2018-07-07T06:43:43.305Z,99.90
2018-07-07T06:48:17.818Z,99.90
2018-07-07T06:52:58.180Z,99.90
2018-07-07T06:57:32.567Z,99.90
2018-07-07T07:02:07.051Z,99.90
2018-07-07T07:06:41.502Z,99.90
2018-07-07T07:11:15.813Z,99.90
2018-07-07T07:15:50.374Z,99.90
2018-07-07T07:20:25.001Z,99.90
2018-07-07T07:24:59.457Z,99.90
2018-07-07T07:29:34.425Z,99.90
2018-07-07T07:34:09.249Z,99.90
2018-07-07T07:38:43.685Z,99.90
2018-07-07T07:43:18.223Z,98.90
2018-07-07T07:47:52.693Z,97.70
2018-07-07T07:52:27.111Z,97.40
2018-07-07T07:57:01.607Z,96.40
2018-07-07T08:01:36.425Z,93.70
2018-07-07T08:06:11.610Z,92.50
2018-07-07T08:10:45.960Z,92.10
2018-07-07T08:15:20.637Z,89.80
2018-07-07T08:19:55.072Z,86.30
2018-07-07T08:24:29.534Z,84.20
2018-07-07T08:29:03.904Z,79.80
2018-07-07T08:33:38.506Z,79.20
2018-07-07T08:42:47.394Z,74.70
2018-07-07T08:47:21.904Z,71.60
2018-07-07T08:51:56.189Z,68.70
2018-07-07T08:56:30.671Z,65.90
2018-07-07T09:01:05.178Z,62.70
2018-07-07T09:05:39.653Z,59.70
2018-07-07T09:14:47.826Z,51.90
2018-07-07T09:19:22.066Z,50.80
2018-07-07T09:23:56.800Z,50.70
2018-07-07T09:28:31.142Z,51.30
2018-07-07T09:33:05.501Z,50.50
2018-07-07T09:37:40.893Z,49.40
2018-07-07T09:46:49.355Z,47.00
2018-07-07T09:51:23.705Z,46.20
2018-07-07T09:55:58.302Z,44.40
2018-07-07T10:05:12.525Z,43.80
2018-07-07T10:09:46.937Z,44.20
2018-07-07T10:14:21.202Z,43.30
2018-07-07T10:18:55.848Z,42.00
2018-07-07T10:23:30.225Z,43.10
2018-07-07T10:28:04.658Z,43.90
2018-07-07T10:32:39.238Z,44.90
2018-07-07T10:37:13.750Z,44.80
2018-07-07T10:41:48.013Z,46.00
2018-07-07T10:46:22.359Z,45.60
2018-07-07T10:55:30.969Z,43.80
2018-07-07T11:00:07.258Z,45.50
2018-07-07T11:04:41.494Z,45.10
2018-07-07T11:09:16.121Z,44.20
2018-07-07T11:13:50.670Z,40.80
2018-07-07T11:18:25.009Z,40.80
2018-07-07T11:22:59.394Z,40.80
2018-07-07T11:27:34.442Z,40.70
2018-07-07T11:32:08.866Z,40.10
2018-07-07T11:36:44.237Z,38.80
2018-07-07T11:41:21.135Z,39.70
2018-07-07T11:45:55.713Z,39.50
2018-07-07T11:50:30.207Z,38.60
2018-07-07T11:55:05.030Z,38.90
2018-07-07T12:08:47.661Z,37.80
2018-07-07T12:13:21.893Z,38.40
2018-07-07T12:18:03.347Z,38.00
2018-07-07T12:22:37.934Z,39.20
2018-07-07T12:27:12.152Z,41.00
2018-07-07T12:31:46.541Z,43.70
2018-07-07T12:36:21.006Z,44.20
2018-07-07T12:40:55.467Z,42.60
2018-07-07T12:45:29.834Z,42.30
2018-07-07T12:50:04.181Z,42.80
2018-07-07T12:54:39.110Z,41.70
2018-07-07T12:59:13.621Z,38.70
2018-07-07T13:03:48.147Z,36.90
2018-07-07T13:08:22.575Z,39.10
2018-07-07T13:12:56.869Z,37.70
2018-07-07T13:17:31.248Z,36.30
2018-07-07T13:22:05.687Z,36.90
2018-07-07T13:26:40.143Z,35.70
2018-07-07T13:31:14.485Z,37.70
2018-07-07T13:35:49.090Z,40.20
2018-07-07T13:40:23.688Z,39.40
2018-07-07T13:44:58.923Z,39.30
2018-07-07T13:49:33.242Z,40.10
2018-07-07T13:54:07.985Z,40.10
2018-07-07T13:58:42.594Z,40.90
2018-07-07T14:03:16.878Z,42.20
2018-07-07T14:12:25.841Z,44.50
2018-07-07T14:17:00.445Z,45.80
2018-07-07T14:21:36.004Z,46.60
2018-07-07T14:26:10.617Z,47.30
2018-07-07T14:30:44.878Z,48.20
2018-07-07T14:35:20.045Z,49.80
2018-07-07T14:44:31.877Z,51.30
2018-07-07T14:49:06.686Z,53.60
2018-07-07T14:53:41.066Z,53.50
2018-07-07T14:58:15.544Z,53.10
2018-07-07T15:07:24.917Z,54.50
2018-07-07T15:12:03.299Z,55.70
2018-07-07T15:16:37.657Z,56.10
2018-07-07T15:21:12.039Z,55.40
2018-07-07T15:25:46.301Z,55.90
2018-07-07T15:30:20.856Z,55.20
2018-07-07T15:34:55.540Z,52.80
2018-07-07T15:39:30.030Z,50.90
2018-07-07T15:44:04.577Z,50.60
2018-07-07T15:48:39.005Z,50.10
2018-07-07T15:53:14.407Z,50.90
2018-07-07T15:57:48.818Z,50.70
2018-07-07T16:16:05.434Z,49.50
2018-07-07T16:20:40.309Z,50.00
2018-07-07T16:25:14.808Z,50.90
2018-07-07T16:29:49.606Z,50.80
2018-07-07T16:34:24.286Z,50.40
2018-07-07T16:38:58.909Z,50.20
2018-07-07T16:43:33.391Z,50.90
2018-07-07T16:52:43.766Z,53.00
2018-07-07T16:57:18.137Z,53.50
2018-07-07T17:01:53.802Z,54.10
2018-07-07T17:06:29.856Z,53.10
2018-07-07T17:11:06.677Z,54.30
2018-07-07T17:15:43.445Z,52.40
2018-07-07T17:20:18.090Z,53.60
2018-07-07T17:24:53.280Z,53.00
2018-07-07T17:29:28.325Z,53.10
2018-07-07T17:34:03.917Z,52.90
2018-07-07T17:38:39.165Z,53.30
2018-07-07T17:43:13.738Z,52.50
2018-07-07T17:47:48.171Z,53.40
2018-07-07T17:52:23.572Z,53.70
2018-07-07T17:56:58.501Z,54.80
2018-07-07T18:01:34.070Z,54.20
2018-07-07T18:06:08.820Z,53.90
2018-07-07T18:10:43.315Z,54.40
2018-07-07T18:15:17.737Z,54.00
2018-07-07T18:24:26.873Z,54.30
2018-07-07T18:29:01.341Z,53.90
2018-07-07T18:33:35.771Z,54.30
2018-07-07T18:38:10.361Z,54.50
2018-07-07T18:42:44.830Z,55.40
2018-07-07T18:47:19.526Z,56.50
2018-07-07T18:51:53.937Z,57.50
2018-07-07T18:56:28.337Z,57.70
2018-07-07T19:01:02.830Z,58.20
2018-07-07T19:05:37.462Z,59.10
2018-07-07T19:10:11.882Z,59.40
2018-07-07T19:14:46.118Z,60.00
2018-07-07T19:19:20.504Z,60.30
2018-07-07T19:24:00.036Z,61.30
2018-07-07T19:28:34.325Z,61.40
2018-07-07T19:33:13.806Z,62.80
2018-07-07T19:37:48.037Z,65.60
2018-07-07T19:42:22.333Z,71.60
2018-07-07T19:46:56.638Z,72.90
2018-07-07T19:51:31.202Z,73.30
2018-07-07T19:56:05.564Z,72.80
2018-07-07T20:00:39.921Z,72.00
2018-07-07T20:05:14.672Z,72.30
2018-07-07T20:09:49.005Z,72.80
2018-07-07T20:14:27.510Z,77.50
2018-07-07T20:19:16.858Z,82.00
2018-07-07T20:23:53.284Z,84.60
2018-07-07T20:28:32.884Z,89.20
2018-07-07T20:33:07.549Z,91.50
2018-07-07T20:37:42.632Z,94.00
2018-07-07T20:42:19.028Z,95.80
2018-07-07T20:51:27.783Z,98.20
2018-07-07T20:56:02.673Z,99.00
2018-07-07T21:00:37.361Z,99.70
2018-07-07T21:05:11.717Z,99.90
2018-07-07T21:09:46.330Z,99.90
2018-07-07T21:14:20.756Z,99.90
2018-07-07T21:18:55.918Z,99.90
2018-07-07T21:28:04.516Z,99.90
2018-07-07T21:32:38.854Z,99.90
2018-07-07T21:37:13.481Z,99.90
2018-07-07T21:41:48.309Z,99.90
2018-07-07T21:46:23.177Z,99.90
2018-07-07T21:50:57.873Z,99.90
2018-07-07T22:00:06.937Z,99.90
2018-07-07T22:04:46.554Z,99.90
2018-07-07T22:09:20.997Z,99.90
2018-07-07T22:13:55.497Z,99.90
2018-07-07T22:18:30.952Z,99.90
2018-07-07T22:23:06.046Z,99.90
2018-07-07T22:27:40.670Z,99.90
2018-07-07T22:32:22.823Z,99.90
2018-07-07T22:36:57.874Z,99.90
2018-07-07T22:41:59.001Z,99.90
2018-07-07T22:46:33.901Z,99.90
2018-07-07T22:55:41.957Z,99.90
2018-07-07T23:00:16.630Z,99.90
2018-07-07T23:04:51.257Z,99.90
2018-07-07T23:09:25.595Z,99.90
2018-07-07T23:14:00.130Z,99.90
2018-07-07T23:18:34.988Z,99.90
2018-07-07T23:23:09.770Z,99.90
2018-07-07T23:27:44.165Z,99.90
2018-07-07T23:32:18.609Z,99.90
2018-07-07T23:36:53.553Z,99.90
2018-07-07T23:41:28.174Z,99.90
2018-07-07T23:46:02.749Z,99.90
2018-07-07T23:50:37.088Z,99.90
2018-07-07T23:55:11.278Z,99.90
2018-07-07T23:59:45.649Z,99.90
